createdAt,value
2018-02-16T00:00:08.083Z,82.37
2018-02-16T00:02:37.398Z,83.78
2018-02-16T00:05:07.316Z,83.89
2018-02-16T00:07:37.417Z,83.57
2018-02-16T00:10:07.241Z,83.87
2018-02-16T00:12:37.220Z,83.91
2018-02-16T00:15:07.055Z,83.79
2018-02-16T00:17:37.102Z,83.96
2018-02-16T00:20:06.580Z,83.82
2018-02-16T00:22:36.616Z,83.98
2018-02-16T00:25:06.185Z,84.52
2018-02-16T00:27:36.021Z,84.81
2018-02-16T00:30:05.851Z,84.61
2018-02-16T00:32:35.768Z,83.96
2018-02-16T00:35:05.621Z,84.57
2018-02-16T00:37:35.615Z,84.23
2018-02-16T00:40:05.504Z,84.53
2018-02-16T00:42:35.365Z,84.63
2018-02-16T00:45:05.183Z,85.01
2018-02-16T00:47:35.039Z,83.99
2018-02-16T00:50:04.639Z,84.32
2018-02-16T00:52:34.486Z,83.94
2018-02-16T00:55:04.104Z,84.07
2018-02-16T00:57:33.905Z,84.25
2018-02-16T01:00:03.540Z,84.13
2018-02-16T01:02:33.359Z,83.48
2018-02-16T01:05:03.246Z,83.17
2018-02-16T01:07:33.261Z,82.15
2018-02-16T01:10:03.477Z,82.74
2018-02-16T01:12:33.440Z,82.19
2018-02-16T01:15:03.311Z,82.16
2018-02-16T01:17:33.289Z,82.32
2018-02-16T01:20:03.369Z,82.39
2018-02-16T01:22:33.180Z,81.94
2018-02-16T01:25:03.092Z,82.18
2018-02-16T01:27:32.900Z,82.31
2018-02-16T01:30:02.743Z,82.33
2018-02-16T01:32:32.558Z,82.17
2018-02-16T01:35:02.686Z,82.18
2018-02-16T01:37:32.673Z,82.06
2018-02-16T01:40:02.515Z,82.44
2018-02-16T01:42:31.769Z,82.97
2018-02-16T01:45:01.358Z,83.30
2018-02-16T01:47:31.172Z,83.03
2018-02-16T01:50:06.140Z,83.13
2018-02-16T01:52:35.962Z,83.91
2018-02-16T01:55:05.887Z,84.10
2018-02-16T01:57:35.733Z,84.46
2018-02-16T02:00:05.640Z,85.15
2018-02-16T02:02:35.213Z,84.92
2018-02-16T02:05:04.457Z,84.81
2018-02-16T02:07:34.301Z,84.83
2018-02-16T02:10:03.897Z,85.19
2018-02-16T02:12:33.720Z,85.26
2018-02-16T02:15:03.556Z,85.98
2018-02-16T02:17:33.401Z,86.92
2018-02-16T02:20:03.242Z,87.36
2018-02-16T02:22:33.246Z,87.21
2018-02-16T02:25:03.107Z,87.88
2018-02-16T02:27:32.950Z,88.42
2018-02-16T02:30:02.812Z,88.61
2018-02-16T02:32:32.651Z,89.36
2018-02-16T02:35:02.532Z,89.68
2018-02-16T02:37:32.345Z,89.33
2018-02-16T02:40:02.215Z,89.18
2018-02-16T02:42:31.802Z,90.21
2018-02-16T02:45:01.697Z,90.65
2018-02-16T02:47:31.542Z,91.24
2018-02-16T02:50:01.408Z,92.22
2018-02-16T02:52:31.268Z,92.79
2018-02-16T02:55:01.322Z,93.28
2018-02-16T02:57:31.216Z,94.10
2018-02-16T03:00:01.046Z,94.34
2018-02-16T03:02:30.658Z,95.31
2018-02-16T03:05:00.456Z,95.92
2018-02-16T03:07:30.289Z,96.44
2018-02-16T03:10:00.133Z,97.41
2018-02-16T03:12:30.010Z,98.26
2018-02-16T03:14:59.875Z,99.39
2018-02-16T03:17:29.701Z,100.00
2018-02-16T03:19:59.540Z,100.00
2018-02-16T03:22:29.409Z,100.00
2018-02-16T03:24:59.266Z,100.00
2018-02-16T03:27:29.107Z,100.00
2018-02-16T03:29:58.925Z,100.00
2018-02-16T03:32:28.826Z,100.00
2018-02-16T03:34:58.649Z,100.00
2018-02-16T03:37:28.518Z,100.00
2018-02-16T03:39:58.341Z,100.00
2018-02-16T03:42:27.855Z,100.00
2018-02-16T03:44:57.682Z,100.00
2018-02-16T03:47:27.515Z,100.00
2018-02-16T03:49:57.407Z,100.00
2018-02-16T03:52:27.229Z,100.00
2018-02-16T03:54:57.856Z,100.00
2018-02-16T03:57:27.673Z,100.00
2018-02-16T03:59:57.517Z,100.00
2018-02-16T04:02:27.420Z,100.00
2018-02-16T04:04:57.266Z,100.00
2018-02-16T04:07:27.722Z,100.00
2018-02-16T04:09:57.559Z,100.00
2018-02-16T04:12:27.401Z,100.00
2018-02-16T04:14:57.253Z,100.00
2018-02-16T04:17:27.130Z,100.00
2018-02-16T04:19:56.973Z,100.00
2018-02-16T04:22:27.079Z,100.00
2018-02-16T04:24:56.902Z,99.92
2018-02-16T04:27:26.818Z,100.00
2018-02-16T04:29:56.682Z,100.00
2018-02-16T04:32:26.514Z,100.00
2018-02-16T04:34:56.353Z,100.00
2018-02-16T04:37:26.745Z,100.00
2018-02-16T04:39:56.630Z,100.00
2018-02-16T04:42:26.653Z,100.00
2018-02-16T04:44:56.472Z,100.00
2018-02-16T04:47:26.347Z,100.00
2018-02-16T04:49:56.172Z,100.00
2018-02-16T04:52:25.998Z,100.00
2018-02-16T04:54:55.843Z,99.61
2018-02-16T04:57:25.740Z,99.65
2018-02-16T04:59:55.570Z,100.00
2018-02-16T05:02:25.223Z,99.93
2018-02-16T05:04:55.050Z,100.00
2018-02-16T05:07:24.894Z,100.00
2018-02-16T05:09:54.748Z,100.00
2018-02-16T05:12:24.591Z,100.00
2018-02-16T05:14:54.534Z,100.00
2018-02-16T05:17:24.419Z,100.00
2018-02-16T05:19:54.231Z,100.00
2018-02-16T05:22:24.071Z,99.78
2018-02-16T05:24:53.966Z,99.96
2018-02-16T05:27:23.797Z,99.61
2018-02-16T05:29:53.881Z,99.57
2018-02-16T05:32:23.729Z,98.87
2018-02-16T05:34:53.553Z,99.33
2018-02-16T05:37:23.423Z,99.56
2018-02-16T05:39:53.259Z,99.88
2018-02-16T05:42:23.177Z,100.00
2018-02-16T05:44:52.878Z,100.00
2018-02-16T05:47:22.798Z,100.00
2018-02-16T05:49:52.677Z,100.00
2018-02-16T05:52:22.512Z,100.00
2018-02-16T05:54:52.382Z,100.00
2018-02-16T05:57:22.252Z,100.00
2018-02-16T05:59:52.088Z,100.00
2018-02-16T06:02:21.973Z,100.00
2018-02-16T06:04:51.998Z,100.00
2018-02-16T06:07:21.842Z,100.00
2018-02-16T06:09:51.794Z,100.00
2018-02-16T06:12:21.788Z,100.00
2018-02-16T06:14:51.633Z,100.00
2018-02-16T06:17:22.783Z,100.00
2018-02-16T06:19:53.011Z,100.00
2018-02-16T06:22:22.812Z,100.00
2018-02-16T06:24:52.725Z,100.00
2018-02-16T06:30:16.536Z,100.00
2018-02-16T06:32:47.224Z,100.00
2018-02-16T06:35:18.340Z,100.00
2018-02-16T06:37:48.501Z,100.00
2018-02-16T06:40:18.414Z,100.00
2018-02-16T06:42:48.343Z,100.00
2018-02-16T06:45:18.345Z,100.00
2018-02-16T06:47:48.208Z,100.00
2018-02-16T06:50:18.093Z,100.00
2018-02-16T06:52:48.100Z,100.00
2018-02-16T06:55:17.967Z,99.53
2018-02-16T06:57:47.881Z,99.48
2018-02-16T07:00:18.839Z,99.18
2018-02-16T07:02:48.740Z,98.70
2018-02-16T07:05:19.028Z,96.66
2018-02-16T07:07:49.169Z,96.54
2018-02-16T07:10:19.423Z,96.45
2018-02-16T07:12:49.506Z,96.49
2018-02-16T07:15:19.366Z,96.89
2018-02-16T07:17:49.235Z,96.13
2018-02-16T07:20:18.642Z,96.46
2018-02-16T07:22:49.700Z,96.93
2018-02-16T07:25:19.716Z,97.35
2018-02-16T07:27:50.228Z,96.45
2018-02-16T07:30:21.189Z,95.88
2018-02-16T07:32:51.137Z,95.65
2018-02-16T07:35:21.476Z,95.40
2018-02-16T07:37:51.428Z,95.50
2018-02-16T07:40:21.383Z,95.27
2018-02-16T07:42:51.328Z,95.26
2018-02-16T07:45:21.545Z,94.66
2018-02-16T07:47:51.427Z,95.22
2018-02-16T07:50:21.321Z,94.04
2018-02-16T07:52:51.193Z,93.23
2018-02-16T07:55:21.264Z,93.12
2018-02-16T07:57:51.103Z,92.58
2018-02-16T08:00:20.987Z,92.69
2018-02-16T08:02:50.862Z,92.50
2018-02-16T08:05:20.784Z,91.83
2018-02-16T08:07:51.118Z,91.60
2018-02-16T08:10:21.015Z,89.80
2018-02-16T08:12:50.960Z,89.08
2018-02-16T08:15:21.085Z,88.77
2018-02-16T08:17:50.957Z,88.93
2018-02-16T08:20:20.891Z,88.67
2018-02-16T08:22:50.857Z,88.50
2018-02-16T08:25:23.648Z,89.17
2018-02-16T08:27:53.573Z,88.31
2018-02-16T08:30:23.485Z,88.55
2018-02-16T08:32:54.422Z,88.06
2018-02-16T08:35:24.857Z,86.99
2018-02-16T08:37:55.253Z,85.41
2018-02-16T08:40:25.280Z,83.67
2018-02-16T08:42:55.763Z,83.06
2018-02-16T08:45:26.484Z,83.45
2018-02-16T08:47:56.318Z,81.99
2018-02-16T08:50:29.917Z,81.69
2018-02-16T08:52:59.612Z,81.80
2018-02-16T08:55:30.023Z,82.14
2018-02-16T08:58:00.161Z,83.49
2018-02-16T09:00:30.905Z,84.04
2018-02-16T09:03:01.854Z,83.95
2018-02-16T09:05:31.755Z,85.05
2018-02-16T09:08:01.697Z,86.19
2018-02-16T09:10:32.147Z,87.46
2018-02-16T09:13:02.120Z,86.06
2018-02-16T09:15:32.121Z,86.40
2018-02-16T09:18:02.085Z,87.27
2018-02-16T09:20:31.958Z,87.69
2018-02-16T09:23:01.853Z,86.85
2018-02-16T09:25:31.790Z,86.96
2018-02-16T09:28:01.625Z,87.50
2018-02-16T09:30:31.637Z,87.44
2018-02-16T09:33:02.703Z,87.13
2018-02-16T09:35:34.437Z,87.36
2018-02-16T09:38:04.740Z,86.87
2018-02-16T09:40:34.725Z,87.03
2018-02-16T09:43:04.880Z,88.11
2018-02-16T09:45:35.173Z,87.60
2018-02-16T09:48:05.087Z,87.26
2018-02-16T09:50:35.823Z,88.39
2018-02-16T09:53:05.729Z,87.86
2018-02-16T09:55:35.598Z,89.87
2018-02-16T09:58:05.320Z,89.13
2018-02-16T10:00:35.219Z,88.85
2018-02-16T10:03:05.110Z,88.21
2018-02-16T10:05:34.945Z,88.96
2018-02-16T10:08:04.842Z,87.52
2018-02-16T10:10:34.770Z,87.65
2018-02-16T10:13:04.641Z,86.80
2018-02-16T10:15:34.592Z,86.49
2018-02-16T10:18:04.448Z,86.07
2018-02-16T10:20:34.408Z,86.90
2018-02-16T10:23:04.264Z,84.75
2018-02-16T10:25:34.118Z,83.50
2018-02-16T10:28:03.842Z,84.54
2018-02-16T10:30:33.722Z,84.40
2018-02-16T10:33:03.569Z,81.27
2018-02-16T10:35:33.526Z,80.77
2018-02-16T10:38:03.332Z,81.19
2018-02-16T10:40:33.152Z,80.43
2018-02-16T10:43:03.040Z,80.44
2018-02-16T10:45:33.108Z,80.71
2018-02-16T10:48:03.082Z,78.72
2018-02-16T10:50:32.997Z,78.75
2018-02-16T10:53:03.047Z,78.86
2018-02-16T10:55:32.915Z,79.43
2018-02-16T10:58:02.823Z,80.14
2018-02-16T11:00:38.213Z,80.18
2018-02-16T11:03:13.718Z,78.05
2018-02-16T11:05:48.962Z,79.94
2018-02-16T11:08:24.226Z,79.71
2018-02-16T11:10:54.307Z,79.94
2018-02-16T11:13:24.687Z,79.21
2018-02-16T11:15:54.732Z,80.17
2018-02-16T11:18:27.377Z,78.92
2018-02-16T11:20:58.294Z,80.93
2018-02-16T11:23:28.278Z,81.61
2018-02-16T11:25:58.152Z,82.14
2018-02-16T11:28:28.045Z,82.93
2018-02-16T11:30:57.977Z,82.54
2018-02-16T11:33:27.865Z,81.59
2018-02-16T11:35:57.868Z,82.15
2018-02-16T11:38:27.887Z,81.95
2018-02-16T11:40:57.830Z,81.54
2018-02-16T11:43:27.802Z,80.50
2018-02-16T11:45:57.836Z,79.38
2018-02-16T11:48:29.200Z,79.58
2018-02-16T11:51:00.681Z,79.36
2018-02-16T11:53:30.713Z,78.52
2018-02-16T11:56:01.017Z,77.91
2018-02-16T11:58:31.355Z,78.41
2018-02-16T12:01:01.676Z,79.06
2018-02-16T12:03:31.692Z,76.51
2018-02-16T12:06:01.544Z,77.80
2018-02-16T12:08:32.213Z,75.05
2018-02-16T12:11:01.924Z,74.40
2018-02-16T12:13:31.830Z,74.09
2018-02-16T12:16:01.769Z,72.23
2018-02-16T12:18:31.742Z,72.10
2018-02-16T12:21:01.681Z,71.60
2018-02-16T12:23:31.522Z,71.39
2018-02-16T12:26:01.577Z,71.81
2018-02-16T12:28:31.564Z,71.92
2018-02-16T12:31:01.894Z,72.11
2018-02-16T12:33:34.221Z,73.37
2018-02-16T12:36:04.501Z,75.40
2018-02-16T12:38:36.394Z,75.39
2018-02-16T12:41:06.319Z,76.28
2018-02-16T12:43:36.236Z,76.84
2018-02-16T12:46:07.773Z,77.38
2018-02-16T12:48:37.939Z,77.95
2018-02-16T12:51:17.652Z,78.45
2018-02-16T12:53:50.102Z,79.07
2018-02-16T12:56:20.196Z,76.84
2018-02-16T12:58:51.346Z,76.92
2018-02-16T13:01:22.323Z,76.62
2018-02-16T13:03:52.210Z,76.10
2018-02-16T13:06:22.225Z,76.71
2018-02-16T13:08:52.083Z,76.13
2018-02-16T13:11:22.715Z,76.72
2018-02-16T13:13:52.826Z,74.84
2018-02-16T13:16:22.999Z,75.15
2018-02-16T13:18:52.927Z,75.54
2018-02-16T13:21:23.641Z,74.89
2018-02-16T13:23:53.487Z,72.77
2018-02-16T13:26:23.469Z,71.52
2018-02-16T13:28:53.827Z,70.45
2018-02-16T13:31:25.671Z,71.43
2018-02-16T13:33:55.544Z,69.65
2018-02-16T13:36:25.435Z,68.81
2018-02-16T13:38:55.322Z,67.73
2018-02-16T13:41:25.399Z,68.98
2018-02-16T13:43:55.372Z,68.78
2018-02-16T13:46:25.188Z,67.74
2018-02-16T13:48:55.084Z,66.91
2018-02-16T13:51:25.434Z,66.27
2018-02-16T13:53:55.247Z,64.58
2018-02-16T13:56:25.158Z,64.56
2018-02-16T13:58:55.010Z,65.18
2018-02-16T14:01:24.977Z,65.37
2018-02-16T14:03:55.055Z,65.37
2018-02-16T14:06:25.023Z,67.60
2018-02-16T14:08:56.101Z,68.22
2018-02-16T14:11:26.088Z,66.60
2018-02-16T14:13:55.988Z,68.56
2018-02-16T14:16:25.954Z,69.25
2018-02-16T14:18:55.585Z,70.95
2018-02-16T14:21:26.566Z,72.21
2018-02-16T14:23:56.516Z,73.50
2018-02-16T14:26:26.507Z,74.59
2018-02-16T14:28:56.353Z,74.41
2018-02-16T14:31:27.484Z,75.81
2018-02-16T14:34:00.281Z,75.70
2018-02-16T14:36:33.080Z,75.09
2018-02-16T14:39:03.119Z,76.20
2018-02-16T14:41:32.828Z,75.05
2018-02-16T14:44:03.064Z,75.86
2018-02-16T14:46:32.927Z,76.54
2018-02-16T14:49:02.758Z,76.28
2018-02-16T14:51:32.927Z,73.95
2018-02-16T14:54:03.237Z,73.87
2018-02-16T14:56:36.215Z,74.67
2018-02-16T14:59:06.544Z,74.30
2018-02-16T15:01:36.485Z,74.89
2018-02-16T15:04:06.389Z,75.23
2018-02-16T15:06:36.346Z,74.50
2018-02-16T15:09:06.037Z,75.56
2018-02-16T15:11:35.870Z,76.06
2018-02-16T15:14:05.949Z,77.12
2018-02-16T15:16:36.288Z,77.62
2018-02-16T15:19:06.374Z,78.33
2018-02-16T15:21:36.321Z,78.98
2018-02-16T15:24:06.285Z,79.28
2018-02-16T15:26:36.817Z,78.93
2018-02-16T15:29:06.741Z,79.55
2018-02-16T15:31:36.715Z,79.74
2018-02-16T15:34:06.973Z,80.05
2018-02-16T15:36:36.481Z,81.02
2018-02-16T15:39:05.962Z,81.12
2018-02-16T15:41:35.959Z,81.30
2018-02-16T15:44:05.830Z,82.31
2018-02-16T15:46:35.537Z,82.93
2018-02-16T15:49:05.234Z,83.62
2018-02-16T15:51:35.438Z,84.81
2018-02-16T15:54:05.339Z,85.59
2018-02-16T15:56:35.281Z,85.73
2018-02-16T15:59:05.437Z,85.75
2018-02-16T16:01:35.459Z,86.11
2018-02-16T16:04:05.397Z,87.20
2018-02-16T16:06:35.232Z,88.53
2018-02-16T16:09:04.468Z,88.81
2018-02-16T16:11:34.357Z,89.25
2018-02-16T16:14:05.286Z,89.88
2018-02-16T16:16:35.223Z,90.40
2018-02-16T16:19:05.134Z,90.35
2018-02-16T16:21:35.260Z,90.34
2018-02-16T16:24:05.039Z,90.43
2018-02-16T16:26:34.774Z,90.99
2018-02-16T16:29:04.587Z,91.53
2018-02-16T16:31:36.131Z,91.54
2018-02-16T16:34:05.986Z,91.89
2018-02-16T16:36:35.879Z,92.13
2018-02-16T16:39:05.178Z,92.26
2018-02-16T16:41:35.097Z,92.75
2018-02-16T16:44:05.100Z,93.04
2018-02-16T16:46:35.063Z,93.20
2018-02-16T16:49:05.232Z,93.56
2018-02-16T16:51:35.142Z,93.78
2018-02-16T16:54:04.998Z,94.11
2018-02-16T16:56:34.856Z,93.85
2018-02-16T16:59:04.783Z,93.64
2018-02-16T17:01:34.685Z,93.78
2018-02-16T17:04:04.092Z,93.87
2018-02-16T17:06:34.094Z,93.95
2018-02-16T17:09:03.779Z,94.13
2018-02-16T17:11:33.411Z,93.96
2018-02-16T17:14:03.244Z,93.62
2018-02-16T17:16:33.328Z,93.87
2018-02-16T17:19:04.229Z,93.52
2018-02-16T17:21:34.272Z,93.40
2018-02-16T17:24:04.717Z,93.31
2018-02-16T17:26:34.653Z,93.22
2018-02-16T17:29:04.666Z,93.52
2018-02-16T17:31:34.532Z,93.43
2018-02-16T17:34:04.489Z,93.29
2018-02-16T17:36:34.291Z,93.06
2018-02-16T17:39:03.468Z,93.04
2018-02-16T17:41:33.135Z,93.08
2018-02-16T17:44:03.234Z,93.30
2018-02-16T17:46:33.072Z,93.43
2018-02-16T17:49:03.013Z,93.19
2018-02-16T17:51:32.835Z,93.56
2018-02-16T17:54:02.644Z,93.94
2018-02-16T17:56:32.529Z,94.64
2018-02-16T17:59:02.353Z,95.05
2018-02-16T18:01:32.237Z,95.57
2018-02-16T18:04:02.058Z,95.39
2018-02-16T18:06:31.884Z,95.56
2018-02-16T18:09:01.978Z,95.57
2018-02-16T18:11:31.813Z,95.77
2018-02-16T18:14:01.729Z,96.26
2018-02-16T18:16:33.102Z,96.42
2018-02-16T18:19:03.029Z,96.29
2018-02-16T18:21:32.844Z,95.96
2018-02-16T18:24:02.770Z,95.92
2018-02-16T18:26:32.721Z,95.77
2018-02-16T18:29:02.457Z,95.99
2018-02-16T18:31:32.264Z,95.36
2018-02-16T18:34:01.901Z,94.93
2018-02-16T18:36:32.492Z,94.75
2018-02-16T18:39:02.298Z,94.84
2018-02-16T18:41:31.879Z,95.10
2018-02-16T18:44:01.516Z,95.68
2018-02-16T18:46:31.377Z,96.28
2018-02-16T18:49:01.283Z,96.49
2018-02-16T18:51:31.151Z,97.04
2018-02-16T18:54:01.007Z,97.31
2018-02-16T18:56:30.830Z,97.17
2018-02-16T18:59:00.693Z,97.16
2018-02-16T19:01:30.545Z,97.45
2018-02-16T19:04:00.423Z,98.00
2018-02-16T19:06:30.345Z,98.31
2018-02-16T19:09:00.009Z,98.42
2018-02-16T19:11:29.830Z,98.26
2018-02-16T19:13:59.714Z,98.34
2018-02-16T19:16:29.658Z,98.43
2018-02-16T19:18:59.548Z,98.70
2018-02-16T19:21:29.565Z,98.88
2018-02-16T19:23:59.493Z,98.98
2018-02-16T19:26:30.237Z,99.20
2018-02-16T19:29:00.096Z,99.41
2018-02-16T19:31:29.957Z,99.31
2018-02-16T19:34:00.343Z,99.06
2018-02-16T19:36:31.238Z,98.82
2018-02-16T19:39:01.117Z,98.72
2018-02-16T19:41:31.013Z,98.71
2018-02-16T19:44:00.965Z,98.79
2018-02-16T19:46:31.241Z,98.84
2018-02-16T19:49:01.128Z,98.93
2018-02-16T19:51:30.972Z,99.03
2018-02-16T19:54:00.832Z,99.15
2018-02-16T19:56:30.700Z,99.41
2018-02-16T19:59:00.614Z,99.70
2018-02-16T20:01:30.451Z,99.98
2018-02-16T20:04:00.343Z,100.00
2018-02-16T20:06:30.900Z,100.00
2018-02-16T20:09:00.873Z,100.00
2018-02-16T20:11:30.477Z,100.00
2018-02-16T20:14:00.261Z,100.00
2018-02-16T20:16:30.143Z,100.00
2018-02-16T20:19:00.679Z,100.00
2018-02-16T20:21:30.641Z,100.00
2018-02-16T20:24:00.455Z,100.00
2018-02-16T20:26:30.266Z,100.00
2018-02-16T20:28:59.921Z,100.00
2018-02-16T20:31:29.817Z,100.00
2018-02-16T20:33:59.665Z,100.00
2018-02-16T20:36:29.474Z,100.00
2018-02-16T20:39:01.523Z,100.00
2018-02-16T20:41:31.286Z,100.00
2018-02-16T20:44:01.155Z,100.00
2018-02-16T20:46:30.966Z,100.00
2018-02-16T20:49:00.900Z,100.00
2018-02-16T20:51:31.090Z,100.00
2018-02-16T20:54:00.909Z,100.00
2018-02-16T20:56:30.566Z,100.00
2018-02-16T20:59:00.425Z,100.00
2018-02-16T21:01:30.270Z,100.00
2018-02-16T21:04:00.218Z,100.00
2018-02-16T21:06:33.618Z,100.00
2018-02-16T21:09:03.501Z,100.00
2018-02-16T21:11:33.542Z,100.00
2018-02-16T21:14:03.421Z,100.00
2018-02-16T21:16:33.327Z,100.00
2018-02-16T21:19:03.137Z,100.00
2018-02-16T21:21:32.960Z,100.00
2018-02-16T21:24:02.795Z,100.00
2018-02-16T21:26:32.876Z,100.00
2018-02-16T21:29:02.690Z,100.00
2018-02-16T21:31:32.516Z,100.00
2018-02-16T21:34:02.327Z,100.00
2018-02-16T21:36:32.605Z,100.00
2018-02-16T21:39:02.279Z,100.00
2018-02-16T21:41:31.920Z,100.00
2018-02-16T21:44:01.761Z,100.00
2018-02-16T21:46:31.596Z,100.00
2018-02-16T21:49:01.215Z,100.00
2018-02-16T21:51:31.059Z,100.00
2018-02-16T21:54:00.931Z,100.00
2018-02-16T21:56:30.731Z,100.00
2018-02-16T21:59:00.668Z,100.00
2018-02-16T22:01:30.515Z,100.00
2018-02-16T22:04:00.383Z,100.00
2018-02-16T22:06:30.215Z,100.00
2018-02-16T22:09:01.235Z,100.00
2018-02-16T22:11:30.941Z,100.00
2018-02-16T22:14:00.834Z,100.00
2018-02-16T22:16:30.794Z,100.00
2018-02-16T22:19:04.467Z,100.00
2018-02-16T22:21:34.306Z,100.00
2018-02-16T22:24:04.120Z,100.00
2018-02-16T22:26:33.818Z,100.00
2018-02-16T22:29:03.980Z,100.00
2018-02-16T22:31:34.061Z,100.00
2018-02-16T22:34:04.769Z,100.00
2018-02-16T22:36:34.673Z,100.00
2018-02-16T22:39:04.395Z,100.00
2018-02-16T22:41:34.353Z,100.00
2018-02-16T22:44:07.904Z,100.00
2018-02-16T22:46:38.023Z,100.00
2018-02-16T22:49:08.069Z,100.00
2018-02-16T22:51:37.984Z,100.00
2018-02-16T22:54:07.883Z,100.00
2018-02-16T22:56:38.718Z,100.00
2018-02-16T22:59:08.604Z,100.00
2018-02-16T23:01:39.409Z,100.00
2018-02-16T23:04:09.298Z,100.00
2018-02-16T23:06:39.324Z,100.00
2018-02-16T23:09:09.320Z,100.00
2018-02-16T23:11:39.305Z,100.00
2018-02-16T23:14:09.385Z,100.00
2018-02-16T23:16:39.335Z,100.00
2018-02-16T23:19:30.087Z,100.00
2018-02-16T23:22:00.515Z,100.00
2018-02-16T23:24:30.815Z,100.00
2018-02-16T23:27:00.873Z,100.00
2018-02-16T23:29:30.919Z,100.00
2018-02-16T23:32:00.859Z,100.00
2018-02-16T23:34:31.036Z,100.00
2018-02-16T23:37:00.854Z,100.00
2018-02-16T23:39:31.557Z,100.00
2018-02-16T23:42:01.576Z,100.00
2018-02-16T23:44:31.295Z,100.00
2018-02-16T23:47:01.502Z,100.00
2018-02-16T23:49:31.336Z,100.00
2018-02-16T23:52:01.218Z,100.00
2018-02-16T23:54:31.072Z,100.00
2018-02-16T23:57:00.763Z,100.00
2018-02-16T23:59:30.774Z,100.00
